Seneca, South Dakota
Current Conditions -  °F | °C
As of 7:52 AM on Saturday 25 Oct 2014 (Local Time) from KMBG Reporting Station
Clear Clear  
Wind Chill: 36°   Ceiling: Unl
Heat Index: 41°   Visibility: 10mi
Dew Point: 34°   Wind: 8mph
Humidity: 76%   Direction: 360°N
Pressure: 30.12"   Gusts: NA
Location:  45.06°N, 99.51°W
Report Text: KMBG 251252Z AUTO 36007KT 10SM CLR 05/01 A3012 RMK AO2 SLP203 T00500011
Loading
Personal Weather Stations






























Interactive Weather Map New forecast layout! Learn more

10-Day Weather Forecast

Advertisements
Track Severe Weather on mobile